createdAt,value
2018-01-03T00:04:32.408Z,1.9
2018-01-03T00:09:32.443Z,1.8
2018-01-03T00:14:42.295Z,1.6
2018-01-03T00:19:32.366Z,1.5
2018-01-03T00:24:32.400Z,1.5
2018-01-03T00:29:32.447Z,1.5
2018-01-03T00:34:32.365Z,1.4
2018-01-03T00:39:32.260Z,1.5
2018-01-03T00:44:32.254Z,1.4
2018-01-03T00:49:32.334Z,1.4
2018-01-03T00:54:32.259Z,1.4
2018-01-03T00:59:32.267Z,1.3
2018-01-03T01:04:32.274Z,1.2
2018-01-03T01:09:32.265Z,1.1
2018-01-03T01:14:32.400Z,1.1
2018-01-03T01:19:32.433Z,1
2018-01-03T01:24:32.464Z,1
2018-01-03T01:29:32.381Z,0.9
2018-01-03T01:34:32.368Z,0.9
2018-01-03T01:39:32.444Z,0.8
2018-01-03T01:44:32.288Z,0.7
2018-01-03T01:49:32.303Z,0.6
2018-01-03T01:54:32.436Z,0.6
2018-01-03T01:59:32.286Z,0.5
2018-01-03T02:04:32.292Z,0.5
2018-01-03T02:09:32.458Z,0.5
2018-01-03T02:14:32.296Z,0.4
2018-01-03T02:19:32.482Z,0.5
2018-01-03T02:24:32.308Z,0.5
2018-01-03T02:29:32.463Z,0.4
2018-01-03T02:34:32.473Z,0.4
2018-01-03T02:39:32.507Z,0.4
2018-01-03T02:44:32.523Z,0.4
2018-01-03T02:49:32.451Z,0.4
2018-01-03T02:54:32.493Z,0.3
2018-01-03T02:59:32.521Z,0.3
2018-01-03T03:04:32.440Z,0.3
2018-01-03T03:09:32.486Z,0.3
2018-01-03T03:14:32.527Z,0.2
2018-01-03T03:19:32.435Z,0.3
2018-01-03T03:24:32.497Z,0.2
2018-01-03T03:29:32.358Z,0.3
2018-01-03T03:34:32.539Z,0.3
2018-01-03T03:39:32.452Z,0.3
2018-01-03T03:44:32.478Z,0.3
2018-01-03T03:49:32.620Z,0.4
2018-01-03T03:54:32.551Z,0.6
2018-01-03T03:59:32.474Z,0.6
2018-01-03T04:04:32.435Z,0.6
2018-01-03T04:09:32.471Z,0.6
2018-01-03T04:14:32.459Z,0.7
2018-01-03T04:19:32.370Z,0.7
2018-01-03T04:24:32.541Z,0.8
2018-01-03T04:29:32.377Z,0.8
2018-01-03T04:34:32.386Z,0.8
2018-01-03T04:39:32.513Z,0.9
2018-01-03T04:44:32.408Z,1
2018-01-03T04:49:32.404Z,1
2018-01-03T04:54:32.401Z,1
2018-01-03T04:59:32.399Z,1
2018-01-03T05:04:32.442Z,1.1
2018-01-03T05:09:32.411Z,1.2
2018-01-03T05:14:32.533Z,1.1
2018-01-03T05:19:37.293Z,1.2
2018-01-03T05:24:35.285Z,1.3
2018-01-03T05:29:37.143Z,1.2
2018-01-03T05:34:37.389Z,1.3
2018-01-03T05:39:37.393Z,1.1
2018-01-03T05:44:37.183Z,1.1
2018-01-03T05:49:37.838Z,1.1
2018-01-03T05:54:36.636Z,1.2
2018-01-03T05:59:32.675Z,1.3
2018-01-03T06:04:32.515Z,1.4
2018-01-03T06:09:32.673Z,1.5
2018-01-03T06:14:32.740Z,1.6
2018-01-03T06:19:32.732Z,1.6
2018-01-03T06:24:32.528Z,1.6
2018-01-03T06:29:32.676Z,1.8
2018-01-03T06:34:32.690Z,1.8
2018-01-03T06:39:32.622Z,1.8
2018-01-03T06:44:32.650Z,1.8
2018-01-03T06:49:32.706Z,1.8
2018-01-03T06:54:32.782Z,1.7
2018-01-03T06:59:32.654Z,1.7
2018-01-03T07:04:32.564Z,1.7
2018-01-03T07:09:32.726Z,1.7
2018-01-03T07:14:32.751Z,1.8
2018-01-03T07:19:32.584Z,1.8
2018-01-03T07:24:32.691Z,1.8
2018-01-03T07:29:32.581Z,1.8
2018-01-03T07:34:32.577Z,1.8
2018-01-03T07:39:32.680Z,1.9
2018-01-03T07:44:32.571Z,1.9
2018-01-03T07:49:32.574Z,1.9
2018-01-03T07:54:32.586Z,1.9
2018-01-03T07:59:32.577Z,2
2018-01-03T08:04:32.573Z,2
2018-01-03T08:09:32.680Z,2
2018-01-03T08:14:32.597Z,2
2018-01-03T08:19:32.974Z,1.9
2018-01-03T08:24:34.206Z,2
2018-01-03T08:29:33.136Z,2.2
2018-01-03T08:34:32.956Z,2
2018-01-03T08:39:32.954Z,2
2018-01-03T08:44:32.954Z,2.1
2018-01-03T08:49:33.208Z,2.2
2018-01-03T08:54:33.162Z,2.3
2018-01-03T08:59:32.968Z,2.4
2018-01-03T09:04:32.970Z,2.3
2018-01-03T09:09:32.977Z,2.4
2018-01-03T09:14:32.975Z,2.4
2018-01-03T09:19:32.973Z,2.5
2018-01-03T09:24:32.981Z,2.5
2018-01-03T09:29:33.144Z,2.6
2018-01-03T09:34:33.104Z,2.8
2018-01-03T09:39:32.986Z,2.8
2018-01-03T09:44:33.162Z,2.9
2018-01-03T09:49:32.992Z,3
2018-01-03T09:54:33.091Z,3.1
2018-01-03T09:59:32.986Z,3.3
2018-01-03T10:04:33.162Z,3.5
2018-01-03T10:09:33.293Z,3.6
2018-01-03T10:14:33.150Z,3.7
2018-01-03T10:19:33.040Z,3.8
2018-01-03T10:24:33.184Z,3.8
2018-01-03T10:29:33.131Z,3.8
2018-01-03T10:34:33.134Z,3.8
2018-01-03T10:39:33.175Z,3.8
2018-01-03T10:44:33.841Z,3.7
2018-01-03T10:49:33.025Z,3.7
2018-01-03T10:54:33.390Z,3.8
2018-01-03T10:59:33.190Z,3.8
2018-01-03T11:04:33.399Z,3.8
2018-01-03T11:09:33.144Z,3.8
2018-01-03T11:14:33.113Z,3.8
2018-01-03T11:19:34.113Z,3.8
2018-01-03T11:24:33.052Z,3.7
2018-01-03T11:29:33.514Z,3.7
2018-01-03T11:34:34.773Z,3.7
2018-01-03T11:39:33.357Z,3.7
2018-01-03T11:44:33.149Z,3.7
2018-01-03T11:49:33.071Z,3.9
2018-01-03T11:54:33.335Z,4.3
2018-01-03T11:59:33.847Z,4.5
2018-01-03T12:04:33.350Z,4.7
2018-01-03T12:09:33.243Z,4.9
2018-01-03T12:14:33.088Z,5.1
2018-01-03T12:19:33.154Z,5.2
2018-01-03T12:24:33.070Z,5.3
2018-01-03T12:29:33.101Z,5.3
2018-01-03T12:34:33.266Z,5.3
2018-01-03T12:39:33.079Z,5.3
2018-01-03T12:44:33.224Z,5.2
2018-01-03T12:49:34.021Z,5.3
2018-01-03T12:54:34.273Z,5.4
2018-01-03T12:59:33.615Z,5.4
2018-01-03T13:04:33.238Z,5.4
2018-01-03T13:09:33.765Z,5.5
2018-01-03T13:14:33.184Z,5.4
2018-01-03T13:19:33.355Z,5.3
2018-01-03T13:24:33.190Z,5.3
2018-01-03T13:29:33.199Z,5.3
2018-01-03T13:34:33.328Z,5.3
2018-01-03T13:39:33.898Z,5.3
2018-01-03T13:44:43.108Z,5.2
2018-01-03T13:49:33.305Z,5.2
2018-01-03T13:54:33.225Z,5.1
2018-01-03T13:59:33.149Z,5.1
2018-01-03T14:04:33.784Z,5
2018-01-03T14:09:33.125Z,5
2018-01-03T14:14:33.159Z,5
2018-01-03T14:19:33.164Z,5
2018-01-03T14:24:33.154Z,5.1
2018-01-03T14:29:33.147Z,5.2
2018-01-03T14:34:33.284Z,5.3
2018-01-03T14:39:33.315Z,5.3
2018-01-03T14:44:33.169Z,5.3
2018-01-03T14:49:33.315Z,5.4
2018-01-03T14:54:33.211Z,5.5
2018-01-03T14:59:33.744Z,5.4
2018-01-03T15:04:33.507Z,5.5
2018-01-03T15:09:33.396Z,5.6
2018-01-03T15:14:33.314Z,5.6
2018-01-03T15:19:33.345Z,5.5
2018-01-03T15:24:33.295Z,5.5
2018-01-03T15:29:33.158Z,5.5
2018-01-03T15:34:33.440Z,5.5
2018-01-03T15:39:33.374Z,5.6
2018-01-03T15:44:33.286Z,5.6
2018-01-03T15:49:33.173Z,5.7
2018-01-03T15:54:33.354Z,5.6
2018-01-03T15:59:33.212Z,5.7
2018-01-03T16:04:33.184Z,5.7
2018-01-03T16:09:33.191Z,5.7
2018-01-03T16:14:33.227Z,5.7
2018-01-03T16:19:33.305Z,5.7
2018-01-03T16:24:33.311Z,5.7
2018-01-03T16:29:33.359Z,5.6
2018-01-03T16:34:33.212Z,5.8
2018-01-03T16:39:33.429Z,5.9
2018-01-03T16:44:33.286Z,5.9
2018-01-03T16:49:33.487Z,5.9
2018-01-03T16:54:33.422Z,5.8
2018-01-03T16:59:33.350Z,5.8
2018-01-03T17:04:33.386Z,5.9
2018-01-03T17:09:33.224Z,6
2018-01-03T17:14:33.231Z,6.1
2018-01-03T17:19:33.281Z,6.1
2018-01-03T17:24:33.265Z,6.1
2018-01-03T17:29:33.271Z,6.2
2018-01-03T17:34:33.238Z,6.2
2018-01-03T17:39:33.378Z,6.2
2018-01-03T17:44:33.252Z,6.2
2018-01-03T17:49:33.380Z,6.2
2018-01-03T17:54:34.980Z,6.2
2018-01-03T17:59:33.245Z,6.2
2018-01-03T18:04:34.954Z,6.3
2018-01-03T18:09:34.177Z,6.4
2018-01-03T18:14:33.363Z,6.4
2018-01-03T18:19:33.297Z,6.3
2018-01-03T18:24:33.254Z,6.3
2018-01-03T18:29:33.268Z,6.4
2018-01-03T18:34:33.784Z,6.4
2018-01-03T18:39:33.305Z,6.5
2018-01-03T18:44:35.668Z,6.5
2018-01-03T18:49:33.516Z,6.6
2018-01-03T18:54:33.871Z,6.5
2018-01-03T18:59:33.447Z,6.4
2018-01-03T19:04:33.359Z,6.4
2018-01-03T19:09:33.378Z,6.5
2018-01-03T19:14:33.300Z,6.5
2018-01-03T19:19:34.470Z,6.5
2018-01-03T19:24:33.460Z,6.6
2018-01-03T19:29:33.344Z,6.5
2018-01-03T19:34:33.327Z,6.6
2018-01-03T19:39:33.582Z,6.6
2018-01-03T19:44:33.320Z,6.7
2018-01-03T19:49:33.323Z,6.7
2018-01-03T19:54:33.768Z,6.6
2018-01-03T19:59:34.291Z,6.7
2018-01-03T20:04:33.323Z,6.7
2018-01-03T20:09:33.408Z,6.8
2018-01-03T20:14:33.437Z,6.8
2018-01-03T20:19:33.356Z,6.9
2018-01-03T20:24:33.476Z,6.8
2018-01-03T20:29:33.500Z,6.8
2018-01-03T20:34:33.519Z,6.9
2018-01-03T20:39:33.623Z,7
2018-01-03T20:44:41.150Z,7
2018-01-03T20:49:38.468Z,7
2018-01-03T20:54:33.424Z,7
2018-01-03T20:59:39.239Z,7
2018-01-03T21:04:34.228Z,7
2018-01-03T21:09:33.441Z,7.1
2018-01-03T21:14:34.148Z,7.2
2018-01-03T21:19:33.473Z,7.2
2018-01-03T21:24:33.457Z,7.2
2018-01-03T21:29:33.874Z,7.2
2018-01-03T21:34:33.698Z,7.2
2018-01-03T21:39:33.545Z,7.2
2018-01-03T21:44:33.401Z,7.3
2018-01-03T21:49:33.471Z,7.2
2018-01-03T21:54:33.991Z,7.2
2018-01-03T21:59:33.402Z,7.2
2018-01-03T22:04:33.386Z,7.1
2018-01-03T22:09:33.384Z,7.2
2018-01-03T22:14:33.657Z,7.2
2018-01-03T22:19:33.407Z,7.2
2018-01-03T22:24:33.623Z,7.2
2018-01-03T22:29:33.414Z,7.2
2018-01-03T22:34:33.548Z,7.2
2018-01-03T22:39:33.421Z,7.2
2018-01-03T22:44:33.412Z,7.2
2018-01-03T22:49:33.617Z,7.2
2018-01-03T22:54:33.559Z,7.3
2018-01-03T22:59:33.552Z,7.2
2018-01-03T23:04:33.671Z,7.2
2018-01-03T23:09:33.397Z,7.3
2018-01-03T23:14:33.626Z,7.2
2018-01-03T23:19:33.432Z,7.3
2018-01-03T23:24:33.552Z,7.3
2018-01-03T23:29:33.439Z,7.2
2018-01-03T23:34:33.440Z,7.2
2018-01-03T23:39:33.450Z,7
2018-01-03T23:44:33.557Z,7
2018-01-03T23:49:33.607Z,7
2018-01-03T23:54:33.648Z,7
2018-01-03T23:59:33.539Z,7.1
